Time;durP1;ratioP1;P1;durP2;ratioP2;P2;SDS_P1;SDS_P2;PMS_P1;PMS_P2;Temp;Humidity;BMP_temperature;BMP_pressure;BME280_temperature;BME280_humidity;BME280_pressure;Samples;Min_cycle;Max_cycle;Signal;HPM_P1;HPM_P2
2022/03/17 00:00:25;;;;;;;13.13;6.63;;;-5.30;86.90;-6.20;100812.00;;;;4895009;28;87982;-55
2022/03/17 00:02:51;;;;;;;9.80;5.90;;;-5.30;87.00;-6.20;100807.00;;;;4895534;28;87574;-55
2022/03/17 00:05:18;;;;;;;9.52;5.88;;;-5.30;86.70;-6.20;100813.00;;;;4878787;28;87769;-54
2022/03/17 00:07:44;;;;;;;10.02;5.90;;;-5.30;86.80;-6.30;100819.00;;;;4895312;28;87481;-55
2022/03/17 00:10:14;;;;;;;10.20;5.85;;;-5.30;87.10;-6.30;100834.00;;;;4894190;28;86995;-53
2022/03/17 00:12:42;;;;;;;8.25;5.50;;;-5.40;87.10;-6.30;100818.00;;;;4894538;28;87331;-56
2022/03/17 00:15:10;;;;;;;11.68;6.05;;;-5.40;87.10;-6.30;100815.00;;;;4894559;28;87720;-56
2022/03/17 00:17:36;;;;;;;10.40;5.75;;;-5.40;87.10;-6.30;100818.00;;;;4894282;28;87333;-57
2022/03/17 00:20:07;;;;;;;8.20;5.70;;;-5.40;86.90;-6.30;100818.00;;;;4895440;28;87608;-57
2022/03/17 00:22:34;;;;;;;9.77;5.53;;;-5.40;86.80;-6.30;100824.00;;;;4884643;28;87121;-55
2022/03/17 00:25:00;;;;;;;8.10;5.20;;;-5.40;86.70;-6.20;100818.00;;;;4890208;28;88680;-57
2022/03/17 00:27:26;;;;;;;10.15;5.47;;;-5.30;86.80;-6.30;100805.00;;;;4894634;28;88330;-56
2022/03/17 00:29:54;;;;;;;8.70;5.32;;;-5.40;86.90;-6.30;100802.00;;;;4894622;28;86984;-55
2022/03/17 00:32:20;;;;;;;12.70;5.97;;;-5.40;87.30;-6.30;100819.00;;;;4898191;28;87313;-55
2022/03/17 00:37:31;;;;;;;7.22;4.78;;;-5.50;87.10;-6.40;100816.00;;;;4889491;28;87204;-57
2022/03/17 00:39:57;;;;;;;9.35;5.25;;;-5.50;87.10;-6.40;100816.00;;;;4896030;28;87453;-57
2022/03/17 00:42:24;;;;;;;8.27;5.10;;;-5.50;87.10;-6.40;100809.00;;;;4893842;28;86224;-55
2022/03/17 00:44:51;;;;;;;7.20;4.53;;;-5.50;87.00;-6.50;100812.00;;;;4883764;28;88692;-55
2022/03/17 00:47:17;;;;;;;11.68;4.75;;;-5.60;87.10;-6.40;100818.00;;;;4897197;28;87070;-56
2022/03/17 00:49:44;;;;;;;8.80;5.07;;;-5.50;87.20;-6.50;100820.00;;;;4900683;28;88169;-57
2022/03/17 00:52:11;;;;;;;8.13;4.53;;;-5.50;87.40;-6.50;100823.00;;;;4893170;28;87241;-56
2022/03/17 00:54:41;;;;;;;8.05;4.93;;;-5.50;87.20;-6.50;100821.00;;;;4899638;28;88482;-57
2022/03/17 00:57:12;;;;;;;8.43;4.80;;;-5.60;87.10;-6.50;100825.00;;;;4893997;28;87347;-56
2022/03/17 00:59:40;;;;;;;8.40;5.10;;;-5.60;87.40;-6.50;100826.00;;;;4894705;28;87662;-56
2022/03/17 01:02:07;;;;;;;9.85;5.50;;;-5.60;87.80;-6.50;100828.00;;;;4881632;28;87038;-58
2022/03/17 01:04:35;;;;;;;8.60;5.43;;;-5.60;88.00;-6.50;100837.00;;;;4884409;28;87567;-54
2022/03/17 01:07:02;;;;;;;9.52;5.40;;;-5.60;88.00;-6.60;100835.00;;;;4900155;28;88807;-56
2022/03/17 01:09:28;;;;;;;8.30;5.45;;;-5.70;88.10;-6.70;100832.00;;;;4884815;28;87103;-53
2022/03/17 01:11:55;;;;;;;8.95;5.45;;;-5.80;88.90;-6.70;100835.00;;;;4896648;28;87289;-55
2022/03/17 01:14:22;;;;;;;10.88;5.47;;;-5.70;89.60;-6.60;100839.00;;;;4874159;28;88959;-57
2022/03/17 01:16:50;;;;;;;9.00;5.25;;;-5.70;89.60;-6.70;100837.00;;;;4886534;28;89499;-57
2022/03/17 01:19:20;;;;;;;9.90;6.20;;;-5.70;89.60;-6.70;100837.00;;;;4895034;28;87131;-57
2022/03/17 01:21:48;;;;;;;9.43;6.07;;;-5.70;89.60;-6.70;100847.00;;;;4895919;28;87013;-57
2022/03/17 01:24:16;;;;;;;10.45;5.55;;;-5.70;90.00;-6.70;100847.00;;;;4891099;28;88721;-56
2022/03/17 01:26:42;;;;;;;7.68;5.50;;;-5.70;89.60;-6.60;100843.00;;;;4877519;28;88515;-56
2022/03/17 01:29:09;;;;;;;8.88;5.88;;;-5.70;89.60;-6.60;100849.00;;;;4886902;28;87291;-57
2022/03/17 01:31:35;;;;;;;9.82;5.97;;;-5.70;89.20;-6.70;100844.00;;;;4895822;28;86247;-57
2022/03/17 01:34:03;;;;;;;9.02;6.07;;;-5.70;89.90;-6.70;100844.00;;;;4886076;28;87545;-57
2022/03/17 01:36:30;;;;;;;10.70;5.93;;;-5.80;90.10;-6.70;100861.00;;;;4892807;28;87500;-53
2022/03/17 01:38:57;;;;;;;6.93;5.70;;;-5.80;90.20;-6.80;100855.00;;;;4889044;28;88271;-57
2022/03/17 01:41:23;;;;;;;11.32;6.13;;;-5.80;90.30;-6.80;100853.00;;;;4891533;28;87199;-55
2022/03/17 01:43:50;;;;;;;12.38;6.07;;;-5.80;90.40;-6.70;100857.00;;;;4898390;28;87676;-58
2022/03/17 01:46:18;;;;;;;9.50;5.95;;;-5.80;90.10;-6.70;100865.00;;;;4895109;28;87207;-57
2022/03/17 01:48:44;;;;;;;8.43;5.63;;;-5.70;90.20;-6.60;100854.00;;;;4887164;28;86970;-57
2022/03/17 01:51:11;;;;;;;9.10;5.80;;;-5.70;90.10;-6.60;100859.00;;;;4886973;28;87782;-56
2022/03/17 01:53:39;;;;;;;10.32;5.80;;;-5.70;90.00;-6.60;100856.00;;;;4893413;28;87615;-55
2022/03/17 01:56:05;;;;;;;10.00;6.20;;;-5.70;89.80;-6.70;100853.00;;;;4892233;28;88503;-56
2022/03/17 01:58:32;;;;;;;9.43;5.82;;;-5.80;89.80;-6.70;100871.00;;;;4889242;28;87490;-58
2022/03/17 02:00:58;;;;;;;9.50;5.78;;;-5.80;90.10;-6.80;100870.00;;;;4889600;28;87038;-57
2022/03/17 02:03:26;;;;;;;8.30;5.70;;;-5.80;90.20;-6.80;100859.00;;;;4892571;28;87946;-57
2022/03/17 02:05:54;;;;;;;9.15;5.93;;;-5.90;90.00;-6.80;100870.00;;;;4886483;28;88777;-55
2022/03/17 02:08:20;;;;;;;10.35;5.95;;;-5.90;89.60;-6.80;100867.00;;;;4893031;28;87400;-54
2022/03/17 02:13:32;;;;;;;9.77;6.15;;;-5.90;89.60;-6.80;100868.00;;;;4894058;28;87540;-55
2022/03/17 02:16:01;;;;;;;10.30;6.13;;;-5.90;89.50;-6.80;100872.00;;;;4894554;28;87252;-55
2022/03/17 02:18:28;;;;;;;10.02;5.55;;;-5.90;89.80;-6.80;100874.00;;;;4894314;28;87133;-52
2022/03/17 02:20:57;;;;;;;9.50;6.00;;;-6.00;89.40;-6.90;100868.00;;;;4901915;28;86362;-56
2022/03/17 02:26:08;;;;;;;8.35;5.97;;;-6.10;89.90;-7.00;100869.00;;;;4887433;28;87476;-56
2022/03/17 02:28:35;;;;;;;8.63;6.13;;;-6.10;89.90;-7.10;100871.00;;;;4884398;28;87947;-55
2022/03/17 02:31:05;;;;;;;8.13;5.78;;;-6.10;89.70;-7.10;100864.00;;;;4883939;28;87355;-55
2022/03/17 02:33:32;;;;;;;10.37;5.93;;;-6.10;90.00;-7.00;100872.00;;;;4886595;28;88910;-55
2022/03/17 02:35:58;;;;;;;10.68;6.30;;;-6.10;89.60;-7.00;100877.00;;;;4894494;28;87972;-56
2022/03/17 02:38:25;;;;;;;10.65;5.75;;;-6.10;89.70;-7.10;100878.00;;;;4886308;28;87351;-55
2022/03/17 02:40:52;;;;;;;9.50;5.75;;;-6.20;90.00;-7.10;100872.00;;;;4894392;28;87045;-56
2022/03/17 02:43:20;;;;;;;9.45;5.97;;;-6.20;90.00;-7.10;100879.00;;;;4888598;28;87389;-55
2022/03/17 02:45:47;;;;;;;11.45;6.07;;;-6.20;89.70;-7.10;100869.00;;;;4891686;28;86186;-53
2022/03/17 02:48:15;;;;;;;9.60;5.80;;;-6.20;90.00;-7.20;100890.00;;;;4876615;28;87280;-56
2022/03/17 02:50:42;;;;;;;9.13;5.63;;;-6.30;90.00;-7.20;100884.00;;;;4890295;28;87179;-56
2022/03/17 02:53:10;;;;;;;9.40;6.22;;;-6.30;90.00;-7.30;100892.00;;;;4894026;28;88482;-57
2022/03/17 02:55:39;;;;;;;8.32;5.40;;;-6.30;90.10;-7.30;100902.00;;;;4892642;28;88171;-55
2022/03/17 02:58:09;;;;;;;11.48;5.40;;;-6.30;90.00;-7.30;100905.00;;;;4877841;28;88161;-53
2022/03/17 03:00:36;;;;;;;9.32;5.90;;;-6.30;89.80;-7.30;100890.00;;;;4892964;28;87433;-55
2022/03/17 03:03:05;;;;;;;8.80;5.75;;;-6.30;90.00;-7.20;100900.00;;;;4895396;28;88538;-57
2022/03/17 03:05:31;;;;;;;7.93;5.50;;;-6.30;89.80;-7.20;100909.00;;;;4893871;28;88394;-55
2022/03/17 03:07:58;;;;;;;8.88;5.60;;;-6.30;90.00;-7.20;100906.00;;;;4894772;28;87296;-56
2022/03/17 03:10:24;;;;;;;8.02;5.45;;;-6.30;89.80;-7.30;100908.00;;;;4895119;28;86424;-55
2022/03/17 03:12:50;;;;;;;10.75;5.45;;;-6.40;90.00;-7.30;100931.00;;;;4889557;28;89316;-57
2022/03/17 03:15:16;;;;;;;9.93;5.70;;;-6.40;90.00;-7.40;100923.00;;;;4887619;28;88578;-54
2022/03/17 03:17:42;;;;;;;10.05;5.30;;;-6.40;90.00;-7.40;100923.00;;;;4895751;28;87980;-56
2022/03/17 03:20:10;;;;;;;7.80;5.15;;;-6.40;89.80;-7.40;100918.00;;;;4895707;28;87745;-56
2022/03/17 03:22:39;;;;;;;8.73;5.35;;;-6.40;89.80;-7.50;100916.00;;;;4884065;28;87464;-56
2022/03/17 03:25:08;;;;;;;8.23;4.78;;;-6.50;89.60;-7.50;100926.00;;;;4891629;28;87393;-56
2022/03/17 03:27:37;;;;;;;8.93;5.32;;;-6.50;88.60;-7.40;100933.00;;;;4893037;28;87022;-53
2022/03/17 03:30:04;;;;;;;8.35;5.45;;;-6.40;88.50;-7.40;100940.00;;;;4890703;28;87086;-56
2022/03/17 03:32:31;;;;;;;8.98;5.03;;;-6.40;88.00;-7.40;100931.00;;;;4900308;28;87580;-55
2022/03/17 03:34:57;;;;;;;7.47;3.95;;;-6.40;87.80;-7.40;100935.00;;;;4883446;28;87432;-57
2022/03/17 03:37:23;;;;;;;8.05;5.15;;;-6.40;87.90;-7.40;100919.00;;;;4892583;28;87263;-57
2022/03/17 03:39:55;;;;;;;8.32;5.50;;;-6.50;88.40;-7.40;100935.00;;;;4892889;28;87090;-57
2022/03/17 03:42:21;;;;;;;11.02;5.82;;;-6.40;89.40;-7.20;100939.00;;;;4883825;28;88852;-56
2022/03/17 03:44:48;;;;;;;9.20;5.55;;;-6.30;89.80;-7.20;100949.00;;;;4889014;28;88169;-55
2022/03/17 03:47:15;;;;;;;9.40;5.53;;;-6.30;90.00;-7.20;100947.00;;;;4889404;28;87467;-57
2022/03/17 03:49:43;;;;;;;11.20;6.05;;;-6.30;90.10;-7.10;100948.00;;;;4879710;28;87649;-56
2022/03/17 03:52:12;;;;;;;10.10;5.88;;;-6.30;90.20;-6.80;100956.00;;;;4894489;28;87576;-60
2022/03/17 03:54:39;;;;;;;8.50;5.55;;;-6.10;90.10;-6.60;100946.00;;;;4897154;28;87836;-60
2022/03/17 03:57:06;;;;;;;8.63;5.85;;;-6.10;88.90;-6.40;100962.00;;;;4875786;28;87031;-60
2022/03/17 03:59:34;;;;;;;8.77;5.65;;;-5.90;88.20;-6.20;100953.00;;;;4892444;28;86292;-59
2022/03/17 04:02:04;;;;;;;11.52;6.40;;;-5.80;88.20;-6.10;100950.00;;;;4889507;28;88816;-61
2022/03/17 04:04:31;;;;;;;9.90;5.93;;;-5.80;88.20;-5.90;100962.00;;;;4876035;28;87416;-62
2022/03/17 04:07:02;;;;;;;9.85;5.82;;;-5.70;87.40;-5.70;100957.00;;;;4887688;28;88200;-62
2022/03/17 04:09:38;;;;;;;8.03;5.93;;;-5.60;87.10;-5.60;100966.00;;;;4893291;28;87070;-60
2022/03/17 04:12:07;;;;;;;9.07;5.28;;;-5.50;85.60;-5.50;100964.00;;;;4897550;28;88862;-61
2022/03/17 04:14:34;;;;;;;11.15;6.05;;;-5.50;84.80;-5.30;100971.00;;;;4893251;28;87197;-62
2022/03/17 04:17:00;;;;;;;11.68;6.20;;;-5.40;84.10;-5.00;100970.00;;;;4890749;28;87317;-60
2022/03/17 04:19:27;;;;;;;8.63;5.55;;;-5.20;83.10;-4.90;100963.00;;;;4883109;28;87494;-60
2022/03/17 04:21:55;;;;;;;12.20;6.18;;;-5.00;83.30;-4.70;100958.00;;;;4890179;28;87665;-61
2022/03/17 04:24:23;;;;;;;12.82;6.47;;;-4.90;82.80;-4.50;100987.00;;;;4893638;28;87907;-61
2022/03/17 04:26:50;;;;;;;9.45;6.28;;;-4.80;82.20;-4.30;100973.00;;;;4892759;28;87380;-60
2022/03/17 04:29:17;;;;;;;10.88;6.20;;;-4.60;82.00;-4.30;100984.00;;;;4894022;28;87204;-61
2022/03/17 04:31:44;;;;;;;12.73;6.90;;;-4.70;81.40;-4.30;100974.00;;;;4881277;28;89012;-62
2022/03/17 04:34:11;;;;;;;16.48;6.90;;;-4.60;81.60;-4.20;100988.00;;;;4893348;28;89403;-61
2022/03/17 04:36:38;;;;;;;10.98;7.00;;;-4.60;81.30;-4.00;100990.00;;;;4896761;28;87309;-60
2022/03/17 04:39:10;;;;;;;14.50;6.68;;;-4.50;81.20;-3.90;100994.00;;;;4892651;28;86944;-60
2022/03/17 04:41:36;;;;;;;12.15;6.70;;;-4.40;80.90;-3.80;101006.00;;;;4890531;28;88748;-60
2022/03/17 04:44:03;;;;;;;12.77;6.57;;;-4.30;80.30;-3.80;100995.00;;;;4894763;28;87765;-62
2022/03/17 04:46:29;;;;;;;12.38;6.55;;;-4.30;79.80;-3.70;100985.00;;;;4898617;28;87133;-61
2022/03/17 04:48:55;;;;;;;25.85;7.30;;;-4.20;79.70;-3.60;100993.00;;;;4896017;28;86786;-61
2022/03/17 04:51:21;;;;;;;10.50;6.38;;;-4.20;79.20;-3.70;100995.00;;;;4894090;28;87912;-61
2022/03/17 04:53:48;;;;;;;11.07;6.90;;;-4.30;79.40;-3.50;101000.00;;;;4901872;28;87453;-61
2022/03/17 04:56:17;;;;;;;13.20;6.78;;;-4.20;78.80;-3.50;101004.00;;;;4896058;28;88113;-61
2022/03/17 04:58:45;;;;;;;12.50;7.22;;;-4.20;78.80;-3.60;100992.00;;;;4902378;28;87611;-61
2022/03/17 05:01:13;;;;;;;13.98;7.03;;;-4.30;79.40;-3.50;101010.00;;;;4894933;28;89253;-60
2022/03/17 05:03:41;;;;;;;12.45;6.65;;;-4.20;78.80;-3.50;101008.00;;;;4896373;28;88598;-61
2022/03/17 05:06:15;;;;;;;11.57;7.18;;;-4.10;78.60;-3.50;101012.00;;;;4894146;28;87460;-61
2022/03/17 05:08:42;;;;;;;14.23;6.80;;;-4.10;77.50;-3.70;101007.00;;;;4893435;28;87147;-62
2022/03/17 05:11:09;;;;;;;11.95;6.82;;;-4.10;77.90;-3.70;101016.00;;;;4883737;28;88648;-62
2022/03/17 05:13:36;;;;;;;13.82;6.60;;;-4.10;77.70;-4.10;101020.00;;;;4893568;28;87205;-61
2022/03/17 05:16:07;;;;;;;14.77;6.72;;;-4.20;77.20;-4.60;101025.00;;;;4898086;28;87165;-61
2022/03/17 05:18:34;;;;;;;18.20;7.63;;;-4.40;77.80;-5.10;101019.00;;;;4890553;28;88020;-61
2022/03/17 05:21:01;;;;;;;17.63;6.45;;;-4.50;78.40;-5.30;101022.00;;;;4894273;28;88324;-61
2022/03/17 05:23:27;;;;;;;12.70;7.03;;;-4.70;78.70;-5.40;101021.00;;;;4892681;28;89345;-62
2022/03/17 05:25:54;;;;;;;12.00;6.43;;;-4.80;79.00;-5.60;101033.00;;;;4895049;28;87482;-62
2022/03/17 05:28:20;;;;;;;16.83;6.85;;;-4.80;78.70;-5.50;101031.00;;;;4891945;28;87011;-62
2022/03/17 05:30:47;;;;;;;14.30;6.40;;;-4.80;78.60;-5.50;101027.00;;;;4884875;28;87483;-62
2022/03/17 05:33:13;;;;;;;15.27;6.28;;;-4.80;78.10;-5.50;101044.00;;;;4883331;28;87447;-61
2022/03/17 05:35:42;;;;;;;12.52;6.30;;;-4.70;78.20;-5.50;101026.00;;;;4894849;28;87399;-61
2022/03/17 05:38:09;;;;;;;12.05;5.78;;;-4.70;78.20;-5.40;101024.00;;;;4883681;28;86346;-61
2022/03/17 05:40:36;;;;;;;14.07;5.93;;;-4.60;78.20;-5.30;101016.00;;;;4890536;28;87565;-61
2022/03/17 05:43:06;;;;;;;12.68;5.53;;;-4.50;77.60;-5.20;101018.00;;;;4891568;28;88487;-61
2022/03/17 05:45:34;;;;;;;11.32;6.10;;;-4.40;76.30;-5.10;101024.00;;;;4879970;28;88031;-61
2022/03/17 05:48:03;;;;;;;11.15;5.47;;;-4.30;75.60;-5.00;101017.00;;;;4897216;28;87301;-61
2022/03/17 05:50:41;;;;;;;12.32;5.88;;;-4.20;74.80;-4.90;101001.00;;;;4893327;28;87487;-61
2022/03/17 05:53:09;;;;;;;11.63;5.90;;;-4.10;74.80;-4.90;101017.00;;;;4895667;28;87745;-61
2022/03/17 05:55:36;;;;;;;11.57;6.13;;;-4.20;75.20;-4.90;101028.00;;;;4889431;28;87938;-61
2022/03/17 05:58:04;;;;;;;11.48;5.80;;;-4.10;74.50;-4.80;101031.00;;;;4894067;28;86992;-60
2022/03/17 06:00:31;;;;;;;13.90;5.63;;;-4.10;74.00;-4.70;101037.00;;;;4890064;28;87716;-61
2022/03/17 06:02:59;;;;;;;11.05;5.78;;;-4.00;73.40;-4.70;101031.00;;;;4891729;28;87744;-61
2022/03/17 06:05:26;;;;;;;9.23;5.38;;;-4.00;73.00;-4.60;101037.00;;;;4895658;28;87175;-60
2022/03/17 06:08:00;;;;;;;11.55;5.72;;;-3.90;72.60;-4.50;101041.00;;;;4886429;28;87109;-60
2022/03/17 06:10:34;;;;;;;12.88;5.40;;;-3.80;72.00;-4.50;101053.00;;;;4885836;28;88784;-61
2022/03/17 06:13:06;;;;;;;11.27;4.88;;;-3.80;71.20;-4.60;101054.00;;;;4894756;28;87434;-60
2022/03/17 06:15:36;;;;;;;10.45;4.78;;;-3.90;69.20;-4.60;101045.00;;;;4882101;28;87009;-60
2022/03/17 06:18:05;;;;;;;11.88;4.95;;;-3.90;68.50;-4.50;101048.00;;;;4891144;28;87482;-60
2022/03/17 06:20:34;;;;;;;9.75;5.20;;;-3.80;68.70;-4.40;101044.00;;;;4884259;28;87801;-61
2022/03/17 06:23:04;;;;;;;13.50;5.35;;;-3.70;68.30;-4.30;101072.00;;;;4899149;28;87462;-60
2022/03/17 06:25:33;;;;;;;11.98;5.22;;;-3.60;68.00;-4.50;101060.00;;;;4892234;28;87065;-61
2022/03/17 06:28:00;;;;;;;12.55;5.20;;;-3.80;66.60;-4.50;101070.00;;;;4899226;28;86278;-60
2022/03/17 06:30:35;;;;;;;14.70;5.53;;;-3.80;67.00;-4.40;101066.00;;;;4898304;28;87661;-60
2022/03/17 06:33:02;;;;;;;13.40;5.35;;;-3.70;66.40;-4.30;101052.00;;;;4882107;28;88526;-60
2022/03/17 06:35:28;;;;;;;15.30;5.50;;;-3.60;66.30;-4.20;101062.00;;;;4891252;28;88708;-60
2022/03/17 06:37:58;;;;;;;15.43;5.68;;;-3.50;66.30;-4.20;101069.00;;;;4893505;28;87291;-60
2022/03/17 06:40:27;;;;;;;9.95;5.55;;;-3.50;65.60;-4.30;101068.00;;;;4900471;28;88793;-61
2022/03/17 06:42:55;;;;;;;13.30;5.45;;;-3.60;65.30;-4.20;101082.00;;;;4892512;28;87131;-62
2022/03/17 06:45:22;;;;;;;13.95;5.40;;;-3.50;65.10;-4.20;101079.00;;;;4866544;28;87092;-61
2022/03/17 06:47:48;;;;;;;11.02;4.85;;;-3.50;64.90;-4.00;101072.00;;;;4894827;28;87230;-61
2022/03/17 06:50:17;;;;;;;11.25;4.95;;;-3.30;65.00;-3.90;101060.00;;;;4891508;28;87598;-62
2022/03/17 06:52:43;;;;;;;13.13;5.85;;;-3.30;64.90;-3.70;101080.00;;;;4892022;28;87446;-61
2022/03/17 06:55:11;;;;;;;12.63;5.80;;;-3.10;64.20;-3.70;101092.00;;;;4886955;28;87050;-59
2022/03/17 06:57:37;;;;;;;16.48;5.75;;;-3.10;64.20;-3.80;101081.00;;;;4895850;28;87490;-61
2022/03/17 07:00:11;;;;;;;12.93;5.60;;;-3.20;62.80;-3.70;101069.00;;;;4885196;28;88626;-61
2022/03/17 07:02:37;;;;;;;12.38;5.38;;;-3.10;62.20;-3.70;101063.00;;;;4869363;28;88259;-62
2022/03/17 07:05:04;;;;;;;14.32;4.80;;;-3.10;61.90;-3.70;101070.00;;;;4894954;28;86986;-61
2022/03/17 07:07:31;;;;;;;10.73;4.85;;;-3.10;61.70;-3.60;101076.00;;;;4894575;28;87006;-61
2022/03/17 07:09:57;;;;;;;9.43;4.85;;;-3.10;61.40;-3.60;101073.00;;;;4883811;28;88550;-61
2022/03/17 07:12:25;;;;;;;13.57;5.20;;;-3.00;60.40;-3.50;101063.00;;;;4887336;28;87203;-61
2022/03/17 07:14:53;;;;;;;13.65;5.18;;;-2.90;59.80;-3.50;101083.00;;;;4880626;28;87099;-60
2022/03/17 07:17:22;;;;;;;12.60;4.43;;;-3.00;59.70;-3.40;101073.00;;;;4894793;28;86382;-61
2022/03/17 07:22:25;;;;;;;16.02;4.68;;;-2.70;59.10;-3.10;101080.00;;;;4895712;28;87890;-60
2022/03/17 07:24:53;;;;;;;9.18;4.30;;;-2.60;58.70;-3.20;101067.00;;;;4880145;28;88451;-61
2022/03/17 07:27:23;;;;;;;10.07;4.28;;;-2.70;56.10;-3.30;101060.00;;;;4892318;28;87010;-61
2022/03/17 07:29:50;;;;;;;14.52;5.38;;;-2.70;57.10;-3.40;101070.00;;;;4896243;28;88030;-57
2022/03/17 07:32:18;;;;;;;12.65;5.00;;;-2.80;57.50;-3.20;101079.00;;;;4887746;28;88450;-61
2022/03/17 07:34:46;;;;;;;11.88;5.20;;;-2.60;58.00;-2.90;101106.00;;;;4892150;28;87230;-61
2022/03/17 07:37:13;;;;;;;8.98;4.00;;;-2.30;58.50;-2.90;101096.00;;;;4890021;28;87402;-61
2022/03/17 07:39:40;;;;;;;10.50;4.32;;;-2.30;57.10;-2.80;101114.00;;;;4897526;28;87488;-61
2022/03/17 07:42:08;;;;;;;7.18;3.47;;;-2.30;57.90;-2.80;101110.00;;;;4889255;28;87376;-61
2022/03/17 07:44:54;;;;;;;9.88;3.53;;;-2.30;55.80;-2.90;101094.00;;;;4893382;28;87288;-61
2022/03/17 07:47:50;;;;;;;12.85;3.65;;;-2.40;55.60;-3.00;101081.00;;;;4895915;28;86982;-64
2022/03/17 07:50:18;;;;;;;9.02;3.80;;;-2.40;56.10;-2.90;101080.00;;;;4884855;28;88436;-63
2022/03/17 07:52:44;;;;;;;14.48;3.80;;;-2.30;55.30;-3.00;101087.00;;;;4887662;28;88799;-62
2022/03/17 07:55:11;;;;;;;9.05;3.55;;;-2.40;54.50;-3.00;101094.00;;;;4894911;28;87048;-63
2022/03/17 07:57:38;;;;;;;9.85;4.00;;;-2.50;54.40;-3.00;101087.00;;;;4880474;28;87572;-62
2022/03/17 08:00:08;;;;;;;9.48;3.63;;;-2.50;54.40;-3.00;101087.00;;;;4881203;28;87988;-60
2022/03/17 08:02:42;;;;;;;12.23;3.40;;;-2.40;52.00;-2.90;101094.00;;;;4897618;28;88387;-61
2022/03/17 08:05:14;;;;;;;11.35;4.25;;;-2.40;52.80;-2.70;101110.00;;;;4884798;28;87038;-61
2022/03/17 08:07:40;;;;;;;8.25;3.05;;;-2.20;55.00;-2.70;101103.00;;;;4895430;28;86796;-61
2022/03/17 08:10:08;;;;;;;8.10;2.75;;;-2.10;52.00;-2.90;101107.00;;;;4898765;28;86991;-61
2022/03/17 08:12:35;;;;;;;9.38;2.97;;;-2.30;50.20;-2.90;101101.00;;;;4864584;28;88372;-60
2022/03/17 08:15:05;;;;;;;6.57;2.80;;;-2.30;48.90;-2.90;101112.00;;;;4893079;28;88266;-61
2022/03/17 08:17:32;;;;;;;10.93;4.07;;;-2.30;49.90;-2.90;101115.00;;;;4893250;28;87580;-62
2022/03/17 08:19:59;;;;;;;10.48;3.30;;;-2.30;51.30;-2.70;101101.00;;;;4882364;28;87656;-62
2022/03/17 08:22:28;;;;;;;9.40;3.10;;;-2.20;51.80;-2.70;101115.00;;;;4885116;28;87357;-62
2022/03/17 08:24:54;;;;;;;6.22;3.20;;;-2.10;51.80;-2.80;101114.00;;;;4893283;28;87457;-60
2022/03/17 08:27:20;;;;;;;9.48;3.70;;;-2.20;50.40;-2.60;101115.00;;;;4893459;28;87500;-60
2022/03/17 08:29:48;;;;;;;12.05;3.75;;;-2.10;51.60;-2.50;101121.00;;;;4888518;28;87782;-61
2022/03/17 08:32:15;;;;;;;10.57;3.67;;;-2.00;51.60;-2.50;101109.00;;;;4894580;28;87330;-61
2022/03/17 08:34:43;;;;;;;8.70;3.28;;;-1.90;50.10;-2.40;101146.00;;;;4893859;28;87247;-61
2022/03/17 08:37:09;;;;;;;10.15;3.35;;;-1.90;50.50;-2.50;101124.00;;;;4890889;28;87251;-59
2022/03/17 08:39:36;;;;;;;10.32;4.15;;;-1.90;51.40;-2.50;101112.00;;;;4895634;28;89576;-62
2022/03/17 08:42:02;;;;;;;8.30;3.50;;;-2.00;50.40;-2.50;101104.00;;;;4895788;28;88339;-61
2022/03/17 08:44:29;;;;;;;11.30;3.58;;;-1.90;50.60;-2.50;101126.00;;;;4886103;28;87524;-61
2022/03/17 08:49:40;;;;;;;10.25;3.53;;;-2.00;49.00;-2.30;101124.00;;;;4873200;28;89270;-61
2022/03/17 08:52:07;;;;;;;7.60;3.28;;;-1.80;51.00;-2.30;101115.00;;;;4890961;28;87486;-60
2022/03/17 08:54:34;;;;;;;9.02;3.03;;;-1.80;49.00;-2.40;101132.00;;;;4895287;28;87332;-61
2022/03/17 08:57:03;;;;;;;8.85;3.50;;;-1.80;49.60;-2.40;101129.00;;;;4896552;28;86324;-61
2022/03/17 08:59:33;;;;;;;9.48;3.92;;;-1.90;49.10;-2.30;101120.00;;;;4898992;28;89403;-62
2022/03/17 09:02:03;;;;;;;7.57;3.17;;;-1.80;50.60;-2.40;101121.00;;;;4875662;28;89687;-61
2022/03/17 09:04:30;;;;;;;11.35;3.97;;;-1.80;49.70;-2.40;101123.00;;;;4887403;28;87994;-62
2022/03/17 09:06:59;;;;;;;11.27;4.15;;;-1.80;50.50;-2.20;101119.00;;;;4896865;28;87056;-63
2022/03/17 09:09:34;;;;;;;10.45;3.55;;;-1.70;50.50;-2.20;101147.00;;;;4886808;28;87538;-63
2022/03/17 09:12:05;;;;;;;11.75;3.55;;;-1.70;51.70;-2.10;101141.00;;;;4895074;28;88078;-65
2022/03/17 09:14:44;;;;;;;8.55;3.00;;;-1.60;48.70;-2.10;101133.00;;;;4887063;28;87415;-63
2022/03/17 09:17:10;;;;;;;9.85;2.70;;;-1.60;48.70;-2.00;101144.00;;;;4886802;28;87176;-64
2022/03/17 09:19:37;;;;;;;6.22;2.60;;;-1.50;45.70;-2.10;101164.00;;;;4888996;28;88008;-63
2022/03/17 09:22:03;;;;;;;7.15;2.55;;;-1.60;46.80;-2.10;101157.00;;;;4893503;28;87364;-63
2022/03/17 09:24:30;;;;;;;6.70;2.80;;;-1.60;47.40;-2.00;101170.00;;;;4892858;28;87178;-62
2022/03/17 09:26:58;;;;;;;6.13;2.70;;;-1.60;44.70;-2.10;101159.00;;;;4895343;28;87027;-63
2022/03/17 09:29:28;;;;;;;6.82;2.83;;;-1.60;44.90;-2.00;101152.00;;;;4884880;28;91246;-62
2022/03/17 09:31:58;;;;;;;5.53;3.03;;;-1.50;45.60;-2.00;101137.00;;;;4883843;28;88110;-63
2022/03/17 09:34:24;;;;;;;6.35;2.75;;;-1.50;46.00;-1.80;101145.00;;;;4884720;28;87202;-63
2022/03/17 09:36:50;;;;;;;9.07;2.65;;;-1.30;45.40;-1.70;101148.00;;;;4890328;28;87109;-64
2022/03/17 09:42:02;;;;;;;11.60;2.92;;;-1.30;45.90;-1.70;101136.00;;;;4899997;28;87407;-61
2022/03/17 09:44:28;;;;;;;7.10;2.92;;;-1.20;44.60;-1.60;101141.00;;;;4885291;28;87073;-62
2022/03/17 09:46:56;;;;;;;7.50;3.25;;;-1.20;48.10;-1.80;101168.00;;;;4891539;28;86962;-60
2022/03/17 09:49:24;;;;;;;5.47;2.75;;;-1.30;44.40;-1.90;101140.00;;;;4875285;28;87803;-62
2022/03/17 09:51:54;;;;;;;8.35;2.50;;;-1.40;46.10;-1.80;101141.00;;;;4897889;28;89236;-63
2022/03/17 09:54:21;;;;;;;8.70;3.10;;;-1.40;48.30;-1.80;101144.00;;;;4893093;28;88612;-61
2022/03/17 09:56:48;;;;;;;7.90;3.08;;;-1.40;46.40;-1.90;101137.00;;;;4896704;28;87304;-62
2022/03/17 09:59:17;;;;;;;5.55;2.90;;;-1.40;44.70;-1.90;101134.00;;;;4896079;28;87041;-63
2022/03/17 10:01:44;;;;;;;7.97;2.72;;;-1.40;43.70;-2.00;101124.00;;;;4894468;28;87025;-62
2022/03/17 10:04:12;;;;;;;6.78;3.22;;;-1.50;42.80;-1.90;101143.00;;;;4898695;28;87935;-60
2022/03/17 10:06:39;;;;;;;5.13;2.80;;;-1.40;45.20;-1.90;101139.00;;;;4884276;28;87016;-61
2022/03/17 10:09:08;;;;;;;10.93;3.10;;;-1.30;44.30;-1.70;101120.00;;;;4892299;28;87617;-63
2022/03/17 10:11:37;;;;;;;10.65;2.55;;;-1.20;44.70;-1.70;101125.00;;;;4898607;28;87502;-62
2022/03/17 10:14:05;;;;;;;10.55;3.17;;;-1.20;42.00;-1.50;101123.00;;;;4885000;28;87402;-62
2022/03/17 10:16:33;;;;;;;13.90;3.08;;;-1.00;43.30;-1.30;101118.00;;;;4884709;28;87547;-63
2022/03/17 10:19:08;;;;;;;8.35;3.20;;;-0.90;43.50;-1.20;101126.00;;;;4888925;28;88341;-62
2022/03/17 10:21:37;;;;;;;7.55;3.08;;;-0.80;43.80;-1.10;101121.00;;;;4894376;28;88436;-62
2022/03/17 10:24:08;;;;;;;6.35;3.00;;;-0.70;42.50;-1.10;101114.00;;;;4893386;28;87221;-62
2022/03/17 10:26:51;;;;;;;7.32;2.85;;;-0.70;42.40;-1.10;101116.00;;;;4896727;28;87128;-61
2022/03/17 10:29:25;;;;;;;5.95;3.00;;;-0.60;43.10;-1.20;101122.00;;;;4903860;28;88799;-62
2022/03/17 10:32:02;;;;;;;8.07;2.53;;;-0.70;41.40;-1.20;101121.00;;;;4884229;28;87821;-63
2022/03/17 10:34:56;;;;;;;6.35;2.80;;;-0.70;42.10;-1.10;101121.00;;;;4891060;28;87038;-63
2022/03/17 10:37:30;;;;;;;7.15;2.83;;;-0.60;44.10;-1.00;101126.00;;;;4886512;28;86294;-62
2022/03/17 10:39:59;;;;;;;9.95;3.40;;;-0.60;45.80;-1.30;101158.00;;;;4901030;28;88611;-63
2022/03/17 10:42:30;;;;;;;13.10;3.17;;;-0.80;47.10;-1.30;101117.00;;;;4896532;28;88776;-61
2022/03/17 10:45:03;;;;;;;5.75;2.90;;;-0.90;48.30;-1.20;101135.00;;;;4891335;28;88990;-62
2022/03/17 10:47:39;;;;;;;9.45;3.13;;;-0.80;48.30;-1.30;101119.00;;;;4894241;28;86951;-61
2022/03/17 10:50:17;;;;;;;6.15;2.67;;;-0.90;48.90;-1.40;101129.00;;;;4882983;28;89135;-62
2022/03/17 10:53:00;;;;;;;6.97;2.85;;;-1.00;46.80;-1.40;101118.00;;;;4886488;28;87263;-60
2022/03/17 10:55:33;;;;;;;5.78;2.83;;;-0.90;48.70;-1.30;101118.00;;;;4891250;28;87182;-60
2022/03/17 10:58:16;;;;;;;5.40;2.47;;;-0.90;46.90;-1.40;101116.00;;;;4893869;28;87124;-60
2022/03/17 11:00:53;;;;;;;6.65;3.13;;;-0.90;47.60;-1.30;101112.00;;;;4881454;28;88685;-61
2022/03/17 11:03:22;;;;;;;8.30;2.75;;;-0.90;47.40;-1.20;101111.00;;;;4874931;28;88281;-61